sensor_id;sensor_type;location;lat;lon;timestamp;P1;durP1;ratioP1;P2;durP2;ratioP2
77362;SDS011;66428;47.322;9.432;2023-03-12T00:01:12;1.42;;;0.88;;
77362;SDS011;66428;47.322;9.432;2023-03-12T00:03:39;1.67;;;1.00;;
77362;SDS011;66428;47.322;9.432;2023-03-12T00:06:08;1.08;;;0.80;;
77362;SDS011;66428;47.322;9.432;2023-03-12T00:08:36;4.88;;;1.30;;
77362;SDS011;66428;47.322;9.432;2023-03-12T00:11:10;4.07;;;1.70;;
77362;SDS011;66428;47.322;9.432;2023-03-12T00:13:37;2.50;;;1.50;;
77362;SDS011;66428;47.322;9.432;2023-03-12T00:16:10;2.70;;;1.40;;
77362;SDS011;66428;47.322;9.432;2023-03-12T00:18:39;2.78;;;1.50;;
77362;SDS011;66428;47.322;9.432;2023-03-12T00:21:09;2.35;;;1.35;;
77362;SDS011;66428;47.322;9.432;2023-03-12T00:23:37;1.90;;;1.35;;
77362;SDS011;66428;47.322;9.432;2023-03-12T00:26:12;2.35;;;1.38;;
77362;SDS011;66428;47.322;9.432;2023-03-12T00:28:41;2.40;;;1.27;;
77362;SDS011;66428;47.322;9.432;2023-03-12T00:31:18;2.15;;;1.42;;
77362;SDS011;66428;47.322;9.432;2023-03-12T00:33:47;2.20;;;1.30;;
77362;SDS011;66428;47.322;9.432;2023-03-12T00:36:18;1.90;;;1.30;;
77362;SDS011;66428;47.322;9.432;2023-03-12T00:38:47;2.10;;;1.55;;
77362;SDS011;66428;47.322;9.432;2023-03-12T00:41:16;2.03;;;1.35;;
77362;SDS011;66428;47.322;9.432;2023-03-12T00:43:45;2.15;;;1.40;;
77362;SDS011;66428;47.322;9.432;2023-03-12T00:46:17;1.80;;;1.00;;
77362;SDS011;66428;47.322;9.432;2023-03-12T00:48:48;2.10;;;1.33;;
77362;SDS011;66428;47.322;9.432;2023-03-12T00:51:17;1.73;;;1.15;;
77362;SDS011;66428;47.322;9.432;2023-03-12T00:53:44;1.95;;;1.30;;
77362;SDS011;66428;47.322;9.432;2023-03-12T00:58:37;2.03;;;1.30;;
77362;SDS011;66428;47.322;9.432;2023-03-12T01:01:04;1.85;;;1.23;;
77362;SDS011;66428;47.322;9.432;2023-03-12T01:05:59;15.85;;;6.90;;
77362;SDS011;66428;47.322;9.432;2023-03-12T01:08:26;7.60;;;4.95;;
77362;SDS011;66428;47.322;9.432;2023-03-12T01:10:52;6.35;;;3.33;;
77362;SDS011;66428;47.322;9.432;2023-03-12T01:13:26;7.55;;;4.30;;
77362;SDS011;66428;47.322;9.432;2023-03-12T01:15:55;23.60;;;12.20;;
77362;SDS011;66428;47.322;9.432;2023-03-12T01:18:27;9.50;;;5.82;;
77362;SDS011;66428;47.322;9.432;2023-03-12T01:20:53;6.55;;;3.17;;
77362;SDS011;66428;47.322;9.432;2023-03-12T01:23:22;5.75;;;2.28;;
77362;SDS011;66428;47.322;9.432;2023-03-12T01:25:53;3.53;;;1.75;;
77362;SDS011;66428;47.322;9.432;2023-03-12T01:28:21;2.70;;;1.63;;
77362;SDS011;66428;47.322;9.432;2023-03-12T01:30:50;2.15;;;1.27;;
77362;SDS011;66428;47.322;9.432;2023-03-12T01:33:21;2.60;;;1.52;;
77362;SDS011;66428;47.322;9.432;2023-03-12T01:35:51;1.83;;;1.10;;
77362;SDS011;66428;47.322;9.432;2023-03-12T01:38:22;2.10;;;1.23;;
77362;SDS011;66428;47.322;9.432;2023-03-12T01:40:49;1.77;;;1.25;;
77362;SDS011;66428;47.322;9.432;2023-03-12T01:45:50;2.10;;;1.42;;
77362;SDS011;66428;47.322;9.432;2023-03-12T01:48:24;10.30;;;6.60;;
77362;SDS011;66428;47.322;9.432;2023-03-12T01:50:56;6.72;;;3.58;;
77362;SDS011;66428;47.322;9.432;2023-03-12T01:53:25;3.50;;;2.33;;
77362;SDS011;66428;47.322;9.432;2023-03-12T01:55:54;5.38;;;3.72;;
77362;SDS011;66428;47.322;9.432;2023-03-12T01:58:21;4.03;;;3.38;;
77362;SDS011;66428;47.322;9.432;2023-03-12T02:00:47;4.95;;;2.60;;
77362;SDS011;66428;47.322;9.432;2023-03-12T02:03:14;3.35;;;2.10;;
77362;SDS011;66428;47.322;9.432;2023-03-12T02:08:09;2.75;;;1.73;;
77362;SDS011;66428;47.322;9.432;2023-03-12T02:10:39;3.80;;;2.20;;
77362;SDS011;66428;47.322;9.432;2023-03-12T02:13:08;2.85;;;2.25;;
77362;SDS011;66428;47.322;9.432;2023-03-12T02:15:35;3.83;;;2.90;;
77362;SDS011;66428;47.322;9.432;2023-03-12T02:18:06;3.90;;;3.08;;
77362;SDS011;66428;47.322;9.432;2023-03-12T02:25:54;3.35;;;2.40;;
77362;SDS011;66428;47.322;9.432;2023-03-12T02:28:26;3.60;;;2.45;;
77362;SDS011;66428;47.322;9.432;2023-03-12T02:30:55;3.88;;;2.50;;
77362;SDS011;66428;47.322;9.432;2023-03-12T02:33:25;2.85;;;2.33;;
77362;SDS011;66428;47.322;9.432;2023-03-12T02:35:54;3.17;;;2.10;;
77362;SDS011;66428;47.322;9.432;2023-03-12T02:40:53;4.03;;;2.72;;
77362;SDS011;66428;47.322;9.432;2023-03-12T02:43:21;4.10;;;2.58;;
77362;SDS011;66428;47.322;9.432;2023-03-12T02:45:48;3.10;;;2.20;;
77362;SDS011;66428;47.322;9.432;2023-03-12T02:48:21;3.88;;;2.65;;
77362;SDS011;66428;47.322;9.432;2023-03-12T02:50:47;3.15;;;2.30;;
77362;SDS011;66428;47.322;9.432;2023-03-12T02:53:14;3.20;;;2.08;;
77362;SDS011;66428;47.322;9.432;2023-03-12T02:58:10;1.55;;;1.23;;
77362;SDS011;66428;47.322;9.432;2023-03-12T03:00:36;3.10;;;2.22;;
77362;SDS011;66428;47.322;9.432;2023-03-12T03:03:05;2.33;;;1.50;;
77362;SDS011;66428;47.322;9.432;2023-03-12T03:05:32;4.20;;;2.30;;
77362;SDS011;66428;47.322;9.432;2023-03-12T03:10:26;3.60;;;2.15;;
77362;SDS011;66428;47.322;9.432;2023-03-12T03:12:53;2.78;;;1.73;;
77362;SDS011;66428;47.322;9.432;2023-03-12T03:15:22;2.03;;;1.52;;
77362;SDS011;66428;47.322;9.432;2023-03-12T03:17:49;3.05;;;1.73;;
77362;SDS011;66428;47.322;9.432;2023-03-12T03:20:17;2.85;;;1.70;;
77362;SDS011;66428;47.322;9.432;2023-03-12T03:22:47;2.45;;;1.70;;
77362;SDS011;66428;47.322;9.432;2023-03-12T03:25:21;2.45;;;1.50;;
77362;SDS011;66428;47.322;9.432;2023-03-12T03:27:51;3.38;;;2.95;;
77362;SDS011;66428;47.322;9.432;2023-03-12T03:30:17;3.00;;;2.60;;
77362;SDS011;66428;47.322;9.432;2023-03-12T03:32:49;2.10;;;1.50;;
77362;SDS011;66428;47.322;9.432;2023-03-12T03:35:16;2.70;;;1.73;;
77362;SDS011;66428;47.322;9.432;2023-03-12T03:37:46;2.90;;;2.15;;
77362;SDS011;66428;47.322;9.432;2023-03-12T03:40:17;2.70;;;1.90;;
77362;SDS011;66428;47.322;9.432;2023-03-12T03:42:46;2.08;;;1.17;;
77362;SDS011;66428;47.322;9.432;2023-03-12T03:45:15;1.75;;;1.30;;
77362;SDS011;66428;47.322;9.432;2023-03-12T03:47:45;1.75;;;1.15;;
77362;SDS011;66428;47.322;9.432;2023-03-12T03:50:13;1.50;;;1.23;;
77362;SDS011;66428;47.322;9.432;2023-03-12T03:52:44;2.00;;;1.20;;
77362;SDS011;66428;47.322;9.432;2023-03-12T03:55:11;2.25;;;1.23;;
77362;SDS011;66428;47.322;9.432;2023-03-12T03:57:40;1.60;;;1.13;;
77362;SDS011;66428;47.322;9.432;2023-03-12T04:00:08;1.05;;;0.73;;
77362;SDS011;66428;47.322;9.432;2023-03-12T04:02:43;1.42;;;0.80;;
77362;SDS011;66428;47.322;9.432;2023-03-12T04:05:11;1.58;;;1.00;;
77362;SDS011;66428;47.322;9.432;2023-03-12T04:07:38;1.08;;;0.80;;
77362;SDS011;66428;47.322;9.432;2023-03-12T04:10:08;1.30;;;0.80;;
77362;SDS011;66428;47.322;9.432;2023-03-12T04:12:40;0.80;;;0.60;;
77362;SDS011;66428;47.322;9.432;2023-03-12T04:15:09;0.90;;;0.70;;
77362;SDS011;66428;47.322;9.432;2023-03-12T04:17:35;1.63;;;0.98;;
77362;SDS011;66428;47.322;9.432;2023-03-12T04:20:02;1.48;;;0.93;;
77362;SDS011;66428;47.322;9.432;2023-03-12T04:22:35;0.93;;;0.65;;
77362;SDS011;66428;47.322;9.432;2023-03-12T04:25:02;2.25;;;1.00;;
77362;SDS011;66428;47.322;9.432;2023-03-12T04:27:33;1.85;;;1.10;;
77362;SDS011;66428;47.322;9.432;2023-03-12T04:29:59;1.33;;;0.90;;
77362;SDS011;66428;47.322;9.432;2023-03-12T04:32:26;1.00;;;0.73;;
77362;SDS011;66428;47.322;9.432;2023-03-12T04:34:55;0.98;;;0.60;;
77362;SDS011;66428;47.322;9.432;2023-03-12T04:37:27;0.93;;;0.70;;
77362;SDS011;66428;47.322;9.432;2023-03-12T04:39:56;1.08;;;0.77;;
77362;SDS011;66428;47.322;9.432;2023-03-12T04:42:25;1.33;;;0.90;;
77362;SDS011;66428;47.322;9.432;2023-03-12T04:44:54;0.68;;;0.60;;
77362;SDS011;66428;47.322;9.432;2023-03-12T04:47:20;0.82;;;0.73;;
77362;SDS011;66428;47.322;9.432;2023-03-12T04:49:47;1.60;;;0.85;;
77362;SDS011;66428;47.322;9.432;2023-03-12T04:52:18;1.50;;;1.08;;
77362;SDS011;66428;47.322;9.432;2023-03-12T04:54:45;1.23;;;0.90;;
77362;SDS011;66428;47.322;9.432;2023-03-12T04:57:13;2.40;;;1.55;;
77362;SDS011;66428;47.322;9.432;2023-03-12T04:59:42;3.25;;;2.08;;
77362;SDS011;66428;47.322;9.432;2023-03-12T05:02:11;2.28;;;1.63;;
77362;SDS011;66428;47.322;9.432;2023-03-12T05:04:39;2.47;;;1.58;;
77362;SDS011;66428;47.322;9.432;2023-03-12T05:07:08;1.83;;;1.00;;
77362;SDS011;66428;47.322;9.432;2023-03-12T05:12:01;2.83;;;1.45;;
77362;SDS011;66428;47.322;9.432;2023-03-12T05:14:33;5.57;;;3.83;;
77362;SDS011;66428;47.322;9.432;2023-03-12T05:17:02;4.35;;;3.22;;
77362;SDS011;66428;47.322;9.432;2023-03-12T05:19:30;5.15;;;2.92;;
77362;SDS011;66428;47.322;9.432;2023-03-12T05:21:59;6.18;;;2.85;;
77362;SDS011;66428;47.322;9.432;2023-03-12T05:24:30;4.90;;;2.13;;
77362;SDS011;66428;47.322;9.432;2023-03-12T05:26:57;4.65;;;2.00;;
77362;SDS011;66428;47.322;9.432;2023-03-12T05:29:26;4.28;;;2.65;;
77362;SDS011;66428;47.322;9.432;2023-03-12T05:31:55;6.63;;;3.10;;
77362;SDS011;66428;47.322;9.432;2023-03-12T05:36:51;6.05;;;3.05;;
77362;SDS011;66428;47.322;9.432;2023-03-12T05:39:26;6.80;;;2.75;;
77362;SDS011;66428;47.322;9.432;2023-03-12T05:41:57;3.90;;;2.10;;
77362;SDS011;66428;47.322;9.432;2023-03-12T05:44:27;5.15;;;2.85;;
77362;SDS011;66428;47.322;9.432;2023-03-12T05:46:54;2.47;;;1.60;;
77362;SDS011;66428;47.322;9.432;2023-03-12T05:49:26;4.35;;;2.08;;
77362;SDS011;66428;47.322;9.432;2023-03-12T05:51:57;2.72;;;1.60;;
77362;SDS011;66428;47.322;9.432;2023-03-12T05:54:24;1.98;;;0.90;;
77362;SDS011;66428;47.322;9.432;2023-03-12T05:56:53;0.50;;;0.45;;
77362;SDS011;66428;47.322;9.432;2023-03-12T05:59:22;0.63;;;0.52;;
77362;SDS011;66428;47.322;9.432;2023-03-12T06:01:50;1.27;;;0.75;;
77362;SDS011;66428;47.322;9.432;2023-03-12T06:04:17;1.02;;;0.57;;
77362;SDS011;66428;47.322;9.432;2023-03-12T06:06:45;0.57;;;0.45;;
77362;SDS011;66428;47.322;9.432;2023-03-12T06:09:19;2.45;;;0.80;;
77362;SDS011;66428;47.322;9.432;2023-03-12T06:11:50;1.45;;;0.90;;
77362;SDS011;66428;47.322;9.432;2023-03-12T06:14:20;1.58;;;0.80;;
77362;SDS011;66428;47.322;9.432;2023-03-12T06:16:47;1.55;;;1.05;;
77362;SDS011;66428;47.322;9.432;2023-03-12T06:19:16;1.10;;;0.82;;
77362;SDS011;66428;47.322;9.432;2023-03-12T06:21:49;5.55;;;2.92;;
77362;SDS011;66428;47.322;9.432;2023-03-12T06:24:15;4.82;;;3.22;;
77362;SDS011;66428;47.322;9.432;2023-03-12T06:26:48;5.28;;;2.95;;
77362;SDS011;66428;47.322;9.432;2023-03-12T06:29:17;4.45;;;2.97;;
77362;SDS011;66428;47.322;9.432;2023-03-12T06:31:45;5.60;;;2.97;;
77362;SDS011;66428;47.322;9.432;2023-03-12T06:34:18;4.18;;;3.15;;
77362;SDS011;66428;47.322;9.432;2023-03-12T06:36:44;3.80;;;2.28;;
77362;SDS011;66428;47.322;9.432;2023-03-12T06:39:11;1.80;;;1.20;;
77362;SDS011;66428;47.322;9.432;2023-03-12T06:41:38;2.53;;;1.70;;
77362;SDS011;66428;47.322;9.432;2023-03-12T06:44:06;2.63;;;1.83;;
77362;SDS011;66428;47.322;9.432;2023-03-12T06:46:38;2.97;;;1.67;;
77362;SDS011;66428;47.322;9.432;2023-03-12T06:49:04;2.55;;;1.58;;
77362;SDS011;66428;47.322;9.432;2023-03-12T06:51:31;5.40;;;2.58;;
77362;SDS011;66428;47.322;9.432;2023-03-12T06:56:27;22.60;;;9.05;;
77362;SDS011;66428;47.322;9.432;2023-03-12T06:58:56;11.98;;;4.32;;
77362;SDS011;66428;47.322;9.432;2023-03-12T07:01:25;6.05;;;3.10;;
77362;SDS011;66428;47.322;9.432;2023-03-12T07:03:52;4.03;;;2.45;;
77362;SDS011;66428;47.322;9.432;2023-03-12T07:06:19;3.20;;;2.03;;
77362;SDS011;66428;47.322;9.432;2023-03-12T07:08:46;3.92;;;2.55;;
77362;SDS011;66428;47.322;9.432;2023-03-12T07:11:13;6.47;;;3.20;;
77362;SDS011;66428;47.322;9.432;2023-03-12T07:13:42;2.97;;;1.30;;
77362;SDS011;66428;47.322;9.432;2023-03-12T07:16:14;2.03;;;1.08;;
77362;SDS011;66428;47.322;9.432;2023-03-12T07:18:43;3.88;;;2.30;;
77362;SDS011;66428;47.322;9.432;2023-03-12T07:21:11;2.30;;;1.50;;
77362;SDS011;66428;47.322;9.432;2023-03-12T07:23:41;1.70;;;1.33;;
77362;SDS011;66428;47.322;9.432;2023-03-12T07:26:10;5.55;;;2.35;;
77362;SDS011;66428;47.322;9.432;2023-03-12T07:28:41;1.00;;;0.80;;
77362;SDS011;66428;47.322;9.432;2023-03-12T07:31:10;1.70;;;0.90;;
77362;SDS011;66428;47.322;9.432;2023-03-12T07:33:42;1.98;;;1.52;;
77362;SDS011;66428;47.322;9.432;2023-03-12T07:36:14;2.28;;;2.00;;
77362;SDS011;66428;47.322;9.432;2023-03-12T07:38:43;1.75;;;1.27;;
77362;SDS011;66428;47.322;9.432;2023-03-12T07:41:11;1.20;;;1.05;;
77362;SDS011;66428;47.322;9.432;2023-03-12T07:43:38;0.85;;;0.70;;
77362;SDS011;66428;47.322;9.432;2023-03-12T07:46:08;1.20;;;0.90;;
77362;SDS011;66428;47.322;9.432;2023-03-12T07:48:34;1.70;;;0.93;;
77362;SDS011;66428;47.322;9.432;2023-03-12T07:51:00;0.80;;;0.52;;
77362;SDS011;66428;47.322;9.432;2023-03-12T07:53:29;2.42;;;1.30;;
77362;SDS011;66428;47.322;9.432;2023-03-12T07:55:56;1.48;;;0.55;;
77362;SDS011;66428;47.322;9.432;2023-03-12T07:58:25;0.68;;;0.60;;
77362;SDS011;66428;47.322;9.432;2023-03-12T08:00:54;0.65;;;0.43;;
77362;SDS011;66428;47.322;9.432;2023-03-12T08:03:24;1.35;;;0.98;;
77362;SDS011;66428;47.322;9.432;2023-03-12T08:05:55;1.75;;;1.00;;
77362;SDS011;66428;47.322;9.432;2023-03-12T08:08:24;1.55;;;0.90;;
77362;SDS011;66428;47.322;9.432;2023-03-12T08:10:54;0.63;;;0.52;;
77362;SDS011;66428;47.322;9.432;2023-03-12T08:13:20;1.50;;;0.55;;
77362;SDS011;66428;47.322;9.432;2023-03-12T08:15:51;1.58;;;0.82;;
77362;SDS011;66428;47.322;9.432;2023-03-12T08:18:22;0.40;;;0.40;;
77362;SDS011;66428;47.322;9.432;2023-03-12T08:20:52;1.77;;;0.65;;
77362;SDS011;66428;47.322;9.432;2023-03-12T08:23:21;0.73;;;0.50;;
77362;SDS011;66428;47.322;9.432;2023-03-12T08:25:50;2.55;;;0.70;;
77362;SDS011;66428;47.322;9.432;2023-03-12T08:28:17;0.93;;;0.70;;
77362;SDS011;66428;47.322;9.432;2023-03-12T08:30:45;0.40;;;0.40;;
77362;SDS011;66428;47.322;9.432;2023-03-12T08:33:14;4.63;;;1.70;;
77362;SDS011;66428;47.322;9.432;2023-03-12T08:35:45;2.13;;;0.70;;
77362;SDS011;66428;47.322;9.432;2023-03-12T08:38:17;0.40;;;0.35;;
77362;SDS011;66428;47.322;9.432;2023-03-12T08:40:43;1.88;;;0.60;;
77362;SDS011;66428;47.322;9.432;2023-03-12T08:43:10;1.75;;;0.75;;
77362;SDS011;66428;47.322;9.432;2023-03-12T08:48:07;1.52;;;0.80;;
77362;SDS011;66428;47.322;9.432;2023-03-12T08:50:34;1.17;;;0.80;;
77362;SDS011;66428;47.322;9.432;2023-03-12T08:55:27;1.15;;;0.85;;
77362;SDS011;66428;47.322;9.432;2023-03-12T09:00:19;0.82;;;0.70;;
77362;SDS011;66428;47.322;9.432;2023-03-12T09:02:46;0.63;;;0.50;;
77362;SDS011;66428;47.322;9.432;2023-03-12T09:07:42;1.00;;;0.60;;
77362;SDS011;66428;47.322;9.432;2023-03-12T09:10:08;1.05;;;0.65;;
77362;SDS011;66428;47.322;9.432;2023-03-12T09:12:37;7.15;;;3.00;;
77362;SDS011;66428;47.322;9.432;2023-03-12T09:15:06;2.60;;;1.20;;
77362;SDS011;66428;47.322;9.432;2023-03-12T09:17:33;1.50;;;0.82;;
77362;SDS011;66428;47.322;9.432;2023-03-12T09:20:00;1.67;;;0.80;;
77362;SDS011;66428;47.322;9.432;2023-03-12T09:22:35;0.90;;;0.77;;
77362;SDS011;66428;47.322;9.432;2023-03-12T09:25:05;1.13;;;0.77;;
77362;SDS011;66428;47.322;9.432;2023-03-12T09:27:42;0.85;;;0.65;;
77362;SDS011;66428;47.322;9.432;2023-03-12T09:30:13;0.38;;;0.38;;
77362;SDS011;66428;47.322;9.432;2023-03-12T09:32:44;0.90;;;0.80;;
77362;SDS011;66428;47.322;9.432;2023-03-12T09:35:15;1.33;;;0.55;;
77362;SDS011;66428;47.322;9.432;2023-03-12T09:37:46;0.47;;;0.47;;
77362;SDS011;66428;47.322;9.432;2023-03-12T09:40:21;0.38;;;0.38;;
77362;SDS011;66428;47.322;9.432;2023-03-12T09:42:59;1.90;;;1.15;;
77362;SDS011;66428;47.322;9.432;2023-03-12T09:45:30;1.38;;;0.63;;
77362;SDS011;66428;47.322;9.432;2023-03-12T09:48:05;0.80;;;0.50;;
77362;SDS011;66428;47.322;9.432;2023-03-12T09:50:39;1.30;;;0.95;;
77362;SDS011;66428;47.322;9.432;2023-03-12T09:53:55;1.10;;;0.60;;
77362;SDS011;66428;47.322;9.432;2023-03-12T09:55:58;0.75;;;0.70;;
77362;SDS011;66428;47.322;9.432;2023-03-12T09:58:35;2.22;;;0.70;;
77362;SDS011;66428;47.322;9.432;2023-03-12T10:06:32;7.50;;;2.80;;
77362;SDS011;66428;47.322;9.432;2023-03-12T10:11:53;0.43;;;0.43;;
77362;SDS011;66428;47.322;9.432;2023-03-12T10:14:27;0.88;;;0.70;;
77362;SDS011;66428;47.322;9.432;2023-03-12T10:24:29;0.70;;;0.50;;
77362;SDS011;66428;47.322;9.432;2023-03-12T10:26:57;1.98;;;0.90;;
77362;SDS011;66428;47.322;9.432;2023-03-12T10:29:31;3.00;;;1.05;;
77362;SDS011;66428;47.322;9.432;2023-03-12T10:32:01;1.23;;;0.50;;
77362;SDS011;66428;47.322;9.432;2023-03-12T10:34:33;2.47;;;1.30;;
77362;SDS011;66428;47.322;9.432;2023-03-12T10:37:14;2.90;;;1.30;;
77362;SDS011;66428;47.322;9.432;2023-03-12T10:39:44;1.83;;;1.02;;
77362;SDS011;66428;47.322;9.432;2023-03-12T10:42:20;2.75;;;1.35;;
77362;SDS011;66428;47.322;9.432;2023-03-12T10:44:48;0.85;;;0.52;;
77362;SDS011;66428;47.322;9.432;2023-03-12T10:49:53;0.65;;;0.50;;
77362;SDS011;66428;47.322;9.432;2023-03-12T10:52:22;0.60;;;0.50;;
77362;SDS011;66428;47.322;9.432;2023-03-12T10:54:49;0.38;;;0.35;;
77362;SDS011;66428;47.322;9.432;2023-03-12T10:57:16;0.50;;;0.50;;
77362;SDS011;66428;47.322;9.432;2023-03-12T10:59:48;0.40;;;0.40;;
77362;SDS011;66428;47.322;9.432;2023-03-12T11:04:56;0.52;;;0.40;;
77362;SDS011;66428;47.322;9.432;2023-03-12T11:07:29;0.88;;;0.73;;
77362;SDS011;66428;47.322;9.432;2023-03-12T11:10:11;8.15;;;3.80;;
77362;SDS011;66428;47.322;9.432;2023-03-12T11:12:50;2.03;;;1.02;;
77362;SDS011;66428;47.322;9.432;2023-03-12T11:15:26;0.65;;;0.63;;
77362;SDS011;66428;47.322;9.432;2023-03-12T11:20:44;0.90;;;0.55;;
77362;SDS011;66428;47.322;9.432;2023-03-12T11:23:14;0.63;;;0.52;;
77362;SDS011;66428;47.322;9.432;2023-03-12T11:25:56;0.50;;;0.40;;
77362;SDS011;66428;47.322;9.432;2023-03-12T11:28:24;0.43;;;0.40;;
77362;SDS011;66428;47.322;9.432;2023-03-12T11:30:55;5.13;;;1.83;;
77362;SDS011;66428;47.322;9.432;2023-03-12T11:33:25;1.60;;;0.82;;
77362;SDS011;66428;47.322;9.432;2023-03-12T11:41:51;0.45;;;0.45;;
77362;SDS011;66428;47.322;9.432;2023-03-12T11:44:31;0.38;;;0.38;;
77362;SDS011;66428;47.322;9.432;2023-03-12T11:47:18;0.38;;;0.38;;
77362;SDS011;66428;47.322;9.432;2023-03-12T11:52:30;0.35;;;0.35;;
77362;SDS011;66428;47.322;9.432;2023-03-12T11:57:39;0.82;;;0.40;;
77362;SDS011;66428;47.322;9.432;2023-03-12T12:23:09;0.45;;;0.45;;
77362;SDS011;66428;47.322;9.432;2023-03-12T12:25:45;0.75;;;0.60;;
77362;SDS011;66428;47.322;9.432;2023-03-12T12:28:24;0.50;;;0.50;;
77362;SDS011;66428;47.322;9.432;2023-03-12T12:36:15;0.70;;;0.60;;
77362;SDS011;66428;47.322;9.432;2023-03-12T12:39:04;1.30;;;0.60;;
77362;SDS011;66428;47.322;9.432;2023-03-12T12:41:35;1.15;;;0.80;;
77362;SDS011;66428;47.322;9.432;2023-03-12T12:44:13;1.65;;;1.02;;
77362;SDS011;66428;47.322;9.432;2023-03-12T12:46:48;0.75;;;0.60;;
77362;SDS011;66428;47.322;9.432;2023-03-12T12:49:23;0.70;;;0.52;;
77362;SDS011;66428;47.322;9.432;2023-03-12T12:51:59;2.33;;;1.05;;
77362;SDS011;66428;47.322;9.432;2023-03-12T12:57:04;1.63;;;1.00;;
77362;SDS011;66428;47.322;9.432;2023-03-12T13:02:12;2.15;;;0.80;;
77362;SDS011;66428;47.322;9.432;2023-03-12T13:04:40;1.30;;;0.60;;
77362;SDS011;66428;47.322;9.432;2023-03-12T13:09:42;3.53;;;1.15;;
77362;SDS011;66428;47.322;9.432;2023-03-12T13:12:13;2.25;;;0.77;;
77362;SDS011;66428;47.322;9.432;2023-03-12T13:14:40;2.42;;;1.20;;
77362;SDS011;66428;47.322;9.432;2023-03-12T13:19:51;0.73;;;0.52;;
77362;SDS011;66428;47.322;9.432;2023-03-12T13:22:33;0.55;;;0.55;;
77362;SDS011;66428;47.322;9.432;2023-03-12T13:37:47;4.20;;;0.70;;
77362;SDS011;66428;47.322;9.432;2023-03-12T13:48:17;1.20;;;0.40;;
77362;SDS011;66428;47.322;9.432;2023-03-12T13:50:54;0.95;;;0.50;;
77362;SDS011;66428;47.322;9.432;2023-03-12T13:53:26;0.82;;;0.52;;
77362;SDS011;66428;47.322;9.432;2023-03-12T13:56:06;0.80;;;0.60;;
77362;SDS011;66428;47.322;9.432;2023-03-12T13:58:48;1.58;;;0.93;;
77362;SDS011;66428;47.322;9.432;2023-03-12T14:01:16;1.27;;;0.55;;
77362;SDS011;66428;47.322;9.432;2023-03-12T14:03:44;0.43;;;0.40;;
77362;SDS011;66428;47.322;9.432;2023-03-12T14:06:20;3.92;;;1.58;;
77362;SDS011;66428;47.322;9.432;2023-03-12T14:09:03;4.53;;;1.80;;
77362;SDS011;66428;47.322;9.432;2023-03-12T14:16:50;1.00;;;0.60;;
77362;SDS011;66428;47.322;9.432;2023-03-12T14:19:18;1.10;;;0.80;;
77362;SDS011;66428;47.322;9.432;2023-03-12T14:21:48;2.67;;;0.88;;
77362;SDS011;66428;47.322;9.432;2023-03-12T14:26:51;1.63;;;0.85;;
77362;SDS011;66428;47.322;9.432;2023-03-12T14:31:59;2.60;;;1.00;;
77362;SDS011;66428;47.322;9.432;2023-03-12T14:34:28;1.92;;;1.08;;
77362;SDS011;66428;47.322;9.432;2023-03-12T14:37:17;1.58;;;1.08;;
77362;SDS011;66428;47.322;9.432;2023-03-12T14:39:45;5.85;;;2.10;;
77362;SDS011;66428;47.322;9.432;2023-03-12T14:42:30;4.45;;;1.15;;
77362;SDS011;66428;47.322;9.432;2023-03-12T14:45:10;3.33;;;1.23;;
77362;SDS011;66428;47.322;9.432;2023-03-12T14:47:42;3.40;;;1.48;;
77362;SDS011;66428;47.322;9.432;2023-03-12T14:50:15;2.50;;;1.00;;
77362;SDS011;66428;47.322;9.432;2023-03-12T14:52:42;1.98;;;1.20;;
77362;SDS011;66428;47.322;9.432;2023-03-12T14:55:16;5.28;;;2.25;;
77362;SDS011;66428;47.322;9.432;2023-03-12T14:57:46;1.80;;;1.20;;
77362;SDS011;66428;47.322;9.432;2023-03-12T15:00:24;2.95;;;1.40;;
77362;SDS011;66428;47.322;9.432;2023-03-12T15:02:51;1.88;;;1.20;;
77362;SDS011;66428;47.322;9.432;2023-03-12T15:05:21;2.00;;;0.70;;
77362;SDS011;66428;47.322;9.432;2023-03-12T15:07:50;1.70;;;0.90;;
77362;SDS011;66428;47.322;9.432;2023-03-12T15:12:44;2.30;;;0.77;;
77362;SDS011;66428;47.322;9.432;2023-03-12T15:17:55;1.35;;;0.73;;
77362;SDS011;66428;47.322;9.432;2023-03-12T15:20:24;1.50;;;0.80;;
77362;SDS011;66428;47.322;9.432;2023-03-12T15:22:51;1.27;;;0.70;;
77362;SDS011;66428;47.322;9.432;2023-03-12T15:25:25;1.40;;;0.85;;
77362;SDS011;66428;47.322;9.432;2023-03-12T15:28:23;3.10;;;0.90;;
77362;SDS011;66428;47.322;9.432;2023-03-12T15:31:07;1.85;;;0.88;;
77362;SDS011;66428;47.322;9.432;2023-03-12T15:33:37;2.22;;;1.02;;
77362;SDS011;66428;47.322;9.432;2023-03-12T15:38:44;2.63;;;0.77;;
77362;SDS011;66428;47.322;9.432;2023-03-12T15:41:20;1.88;;;0.70;;
77362;SDS011;66428;47.322;9.432;2023-03-12T15:43:55;1.13;;;0.68;;
77362;SDS011;66428;47.322;9.432;2023-03-12T15:46:25;2.35;;;1.17;;
77362;SDS011;66428;47.322;9.432;2023-03-12T15:48:53;2.05;;;0.90;;
77362;SDS011;66428;47.322;9.432;2023-03-12T15:54:20;1.48;;;0.50;;
77362;SDS011;66428;47.322;9.432;2023-03-12T15:56:42;1.60;;;0.70;;
77362;SDS011;66428;47.322;9.432;2023-03-12T16:01:44;0.63;;;0.60;;
77362;SDS011;66428;47.322;9.432;2023-03-12T16:04:11;1.05;;;0.85;;
77362;SDS011;66428;47.322;9.432;2023-03-12T16:06:38;1.52;;;1.05;;
77362;SDS011;66428;47.322;9.432;2023-03-12T16:09:08;1.85;;;0.70;;
77362;SDS011;66428;47.322;9.432;2023-03-12T16:11:39;0.93;;;0.70;;
77362;SDS011;66428;47.322;9.432;2023-03-12T16:16:40;1.65;;;0.75;;
77362;SDS011;66428;47.322;9.432;2023-03-12T16:19:16;1.70;;;0.75;;
77362;SDS011;66428;47.322;9.432;2023-03-12T16:21:49;2.55;;;0.73;;
77362;SDS011;66428;47.322;9.432;2023-03-12T16:24:20;1.73;;;0.77;;
77362;SDS011;66428;47.322;9.432;2023-03-12T16:26:51;2.00;;;0.88;;
77362;SDS011;66428;47.322;9.432;2023-03-12T16:29:18;1.80;;;0.93;;
77362;SDS011;66428;47.322;9.432;2023-03-12T16:31:52;2.60;;;0.70;;
77362;SDS011;66428;47.322;9.432;2023-03-12T16:34:21;2.35;;;1.65;;
77362;SDS011;66428;47.322;9.432;2023-03-12T16:36:49;2.53;;;1.35;;
77362;SDS011;66428;47.322;9.432;2023-03-12T16:39:18;2.63;;;1.88;;
77362;SDS011;66428;47.322;9.432;2023-03-12T16:41:45;3.88;;;1.60;;
77362;SDS011;66428;47.322;9.432;2023-03-12T16:44:14;2.10;;;1.20;;
77362;SDS011;66428;47.322;9.432;2023-03-12T16:46:47;3.88;;;1.70;;
77362;SDS011;66428;47.322;9.432;2023-03-12T16:49:16;2.20;;;1.50;;
77362;SDS011;66428;47.322;9.432;2023-03-12T16:51:45;2.97;;;1.23;;
77362;SDS011;66428;47.322;9.432;2023-03-12T16:54:14;2.40;;;1.00;;
77362;SDS011;66428;47.322;9.432;2023-03-12T16:56:44;1.75;;;1.02;;
77362;SDS011;66428;47.322;9.432;2023-03-12T16:59:18;2.53;;;1.30;;
77362;SDS011;66428;47.322;9.432;2023-03-12T17:01:48;3.15;;;1.25;;
77362;SDS011;66428;47.322;9.432;2023-03-12T17:04:15;2.85;;;1.10;;
77362;SDS011;66428;47.322;9.432;2023-03-12T17:06:41;1.92;;;1.10;;
77362;SDS011;66428;47.322;9.432;2023-03-12T17:09:12;3.20;;;1.40;;
77362;SDS011;66428;47.322;9.432;2023-03-12T17:11:42;2.90;;;1.75;;
77362;SDS011;66428;47.322;9.432;2023-03-12T17:14:19;4.63;;;1.98;;
77362;SDS011;66428;47.322;9.432;2023-03-12T17:16:47;2.15;;;1.27;;
77362;SDS011;66428;47.322;9.432;2023-03-12T17:19:20;3.00;;;1.92;;
77362;SDS011;66428;47.322;9.432;2023-03-12T17:21:48;2.53;;;1.50;;
77362;SDS011;66428;47.322;9.432;2023-03-12T17:24:15;2.47;;;1.25;;
77362;SDS011;66428;47.322;9.432;2023-03-12T17:26:46;4.68;;;1.83;;
77362;SDS011;66428;47.322;9.432;2023-03-12T17:29:16;4.05;;;2.10;;
77362;SDS011;66428;47.322;9.432;2023-03-12T17:31:42;11.60;;;6.53;;
77362;SDS011;66428;47.322;9.432;2023-03-12T17:36:38;5.30;;;3.47;;
77362;SDS011;66428;47.322;9.432;2023-03-12T17:39:07;8.43;;;4.65;;
77362;SDS011;66428;47.322;9.432;2023-03-12T17:41:33;4.00;;;2.20;;
77362;SDS011;66428;47.322;9.432;2023-03-12T17:44:02;4.05;;;2.10;;
77362;SDS011;66428;47.322;9.432;2023-03-12T17:48:58;4.45;;;1.98;;
77362;SDS011;66428;47.322;9.432;2023-03-12T17:51:27;3.03;;;1.75;;